Time,TemperatureF,DewpointF,PressureIn,WindDirection,WindDirectionDegrees,WindSpeedMPH,WindSpeedGustMPH,Humidity,HourlyPrecipIn,Conditions,Clouds,dailyrainin,SolarRadiationWatts/m^2,SoftwareType,DateUTC
2019-01-20 00:03:57,35.6,33.8,29.85,NNW,340,4.5,7.6,93,0.25,,,0.02,0.00,,2019-01-20 05:03:57,
2019-01-20 00:08:57,35.4,33.6,29.84,North,1,5.1,9.8,93,0.25,,,0.04,0.00,,2019-01-20 05:08:57,
2019-01-20 00:13:56,35.6,33.8,29.84,North,0,6.3,9.2,93,0.26,,,0.07,0.00,,2019-01-20 05:13:56,
2019-01-20 00:18:56,35.6,33.8,29.85,North,354,2.0,2.7,93,0.27,,,0.10,0.00,,2019-01-20 05:18:56,
2019-01-20 00:23:56,35.8,34.0,29.84,NNE,17,2.5,4.7,93,0.28,,,0.12,0.00,,2019-01-20 05:23:56,
2019-01-20 00:28:56,35.8,34.0,29.84,North,2,3.6,5.6,93,0.28,,,0.15,0.00,,2019-01-20 05:28:56,
2019-01-20 00:33:56,35.8,34.0,29.83,NNE,23,2.2,4.3,93,0.28,,,0.17,0.00,,2019-01-20 05:33:56,
2019-01-20 00:38:56,36.1,34.3,29.81,North,7,2.7,3.6,93,0.29,,,0.20,0.00,,2019-01-20 05:38:56,
2019-01-20 00:43:56,36.0,34.2,29.79,NNE,28,5.6,9.2,93,0.29,,,0.22,0.00,,2019-01-20 05:43:56,
2019-01-20 00:48:56,36.3,34.5,29.78,ESE,119,4.5,9.2,93,0.29,,,0.24,0.00,,2019-01-20 05:48:56,
2019-01-20 00:53:55,36.7,34.9,29.77,East,94,2.7,5.6,93,0.28,,,0.26,0.00,,2019-01-20 05:53:55,
2019-01-20 00:58:55,36.9,35.1,29.76,ESE,103,3.6,8.3,93,0.28,,,0.28,0.00,,2019-01-20 05:58:55,
2019-01-20 01:03:55,37.0,35.2,29.75,East,91,3.1,7.4,93,0.28,,,0.30,0.00,,2019-01-20 06:03:55,
2019-01-20 01:08:55,37.0,35.2,29.75,East,86,1.6,3.6,93,0.28,,,0.32,0.00,,2019-01-20 06:08:55,
2019-01-20 01:13:55,37.0,35.2,29.75,North,357,2.9,6.7,93,0.26,,,0.33,0.00,,2019-01-20 06:13:55,
2019-01-20 01:18:55,36.9,35.1,29.76,North,350,1.8,4.5,93,0.25,,,0.34,0.00,,2019-01-20 06:18:55,
2019-01-20 01:23:55,36.7,34.9,29.76,NE,39,4.0,8.9,93,0.23,,,0.36,0.00,,2019-01-20 06:23:55,
2019-01-20 01:28:55,36.7,34.9,29.77,North,350,6.3,9.8,93,0.23,,,0.38,0.00,,2019-01-20 06:28:55,
2019-01-20 01:33:54,36.7,34.9,29.78,NNW,344,5.4,8.5,93,0.23,,,0.40,0.00,,2019-01-20 06:33:54,
2019-01-20 01:38:54,36.7,34.9,29.77,North,9,3.1,5.6,93,0.22,,,0.42,0.00,,2019-01-20 06:38:54,
2019-01-20 01:43:54,36.9,35.1,29.76,North,357,1.8,4.3,93,0.23,,,0.45,0.00,,2019-01-20 06:43:54,
2019-01-20 01:48:54,36.9,35.1,29.76,NNW,329,2.7,3.8,93,0.23,,,0.47,0.00,,2019-01-20 06:48:54,
2019-01-20 01:53:54,36.7,34.9,29.75,NNW,344,3.6,6.7,93,0.23,,,0.49,0.00,,2019-01-20 06:53:54,
2019-01-20 01:58:54,36.7,34.9,29.75,NNW,331,3.8,4.9,93,0.23,,,0.51,0.00,,2019-01-20 06:58:54,
2019-01-20 02:03:54,36.7,34.9,29.76,North,0,3.6,6.7,93,0.23,,,0.53,0.00,,2019-01-20 07:03:54,
2019-01-20 02:08:54,36.7,34.9,29.75,NE,40,4.7,10.1,93,0.23,,,0.55,0.00,,2019-01-20 07:08:54,
2019-01-20 02:13:54,36.7,34.9,29.75,NNE,12,7.6,15.9,93,0.23,,,0.56,0.00,,2019-01-20 07:13:54,
2019-01-20 02:18:53,36.5,34.7,29.77,NW,317,1.6,4.5,93,0.24,,,0.58,0.00,,2019-01-20 07:18:53,
2019-01-20 02:23:53,36.3,34.5,29.77,NE,51,1.8,4.0,93,0.23,,,0.59,0.00,,2019-01-20 07:23:53,
2019-01-20 02:28:53,36.5,34.7,29.76,NE,50,4.3,6.5,93,0.22,,,0.60,0.00,,2019-01-20 07:28:53,
2019-01-20 02:33:53,36.3,34.5,29.76,North,10,3.6,10.1,93,0.22,,,0.62,0.00,,2019-01-20 07:33:53,
2019-01-20 02:38:53,36.5,34.9,29.72,NNE,31,4.9,10.3,94,0.22,,,0.64,0.00,,2019-01-20 07:38:53,
2019-01-20 02:43:53,36.7,35.1,29.72,NNE,31,3.8,6.9,94,0.21,,,0.66,0.00,,2019-01-20 07:43:53,
2019-01-20 02:48:53,36.7,35.1,29.69,NE,43,8.7,17.4,94,0.20,,,0.67,0.00,,2019-01-20 07:48:53,
2019-01-20 02:53:53,36.5,34.9,29.68,ENE,59,6.9,16.8,94,0.19,,,0.68,0.00,,2019-01-20 07:53:53,
2019-01-20 02:58:53,36.5,34.9,29.67,NNE,27,2.5,8.5,94,0.18,,,0.69,0.00,,2019-01-20 07:58:53,
2019-01-20 03:03:52,36.5,34.9,29.66,East,95,4.0,11.4,94,0.16,,,0.69,0.00,,2019-01-20 08:03:52,
2019-01-20 03:08:52,36.5,34.9,29.66,NE,50,4.3,7.6,94,0.15,,,0.70,0.00,,2019-01-20 08:08:52,
2019-01-20 03:13:52,36.5,34.9,29.66,ESE,113,2.0,4.5,94,0.14,,,0.71,0.00,,2019-01-20 08:13:52,
2019-01-20 03:18:52,36.7,35.1,29.65,East,85,3.6,7.4,94,0.15,,,0.73,0.00,,2019-01-20 08:18:52,
2019-01-20 03:23:52,36.9,35.2,29.65,WSW,248,4.3,6.7,94,0.17,,,0.76,0.00,,2019-01-20 08:23:52,
2019-01-20 03:28:52,36.9,35.2,29.64,SSW,202,3.8,7.4,94,0.17,,,0.77,0.00,,2019-01-20 08:28:52,
2019-01-20 03:33:52,36.9,35.2,29.63,NNW,346,4.0,9.2,94,0.16,,,0.78,0.00,,2019-01-20 08:33:52,
2019-01-20 03:39:50,36.9,35.2,29.64,West,260,4.7,7.2,94,0.15,,,0.79,0.00,,2019-01-20 08:39:50,
2019-01-20 03:44:50,36.7,35.1,29.64,NW,318,4.3,6.0,94,0.15,,,0.81,0.00,,2019-01-20 08:44:50,
2019-01-20 03:49:49,36.9,35.2,29.63,NW,311,3.8,5.4,94,0.15,,,0.82,0.00,,2019-01-20 08:49:49,
2019-01-20 03:54:49,36.9,35.2,29.64,West,264,4.9,6.7,94,0.16,,,0.84,0.00,,2019-01-20 08:54:49,
2019-01-20 03:58:52,36.9,35.2,29.63,NW,326,3.6,5.1,94,0.17,,,0.86,0.00,,2019-01-20 08:58:52,
2019-01-20 04:04:49,37.0,35.4,29.62,NNW,333,2.2,4.9,94,0.18,,,0.87,0.00,,2019-01-20 09:04:49,
2019-01-20 04:09:49,37.0,35.4,29.61,NE,45,6.3,11.9,94,0.19,,,0.88,0.00,,2019-01-20 09:09:49,
2019-01-20 04:14:49,37.0,35.4,29.59,North,359,3.8,6.0,94,0.19,,,0.90,0.00,,2019-01-20 09:14:49,
2019-01-20 04:19:49,37.2,35.6,29.59,NW,320,3.6,6.3,94,0.18,,,0.91,0.00,,2019-01-20 09:19:49,
2019-01-20 04:24:49,37.0,35.4,29.58,West,281,3.6,5.8,94,0.16,,,0.92,0.00,,2019-01-20 09:24:49,
2019-01-20 04:29:49,37.2,35.6,29.58,NE,45,3.6,5.8,94,0.16,,,0.93,0.00,,2019-01-20 09:29:49,
2019-01-20 04:34:48,37.4,35.8,29.57,South,183,3.6,6.7,94,0.16,,,0.94,0.00,,2019-01-20 09:34:48,
2019-01-20 04:39:48,37.4,35.8,29.57,WSW,239,2.9,5.4,94,0.16,,,0.95,0.00,,2019-01-20 09:39:48,
2019-01-20 04:44:48,37.4,35.8,29.57,SW,216,3.1,5.4,94,0.15,,,0.95,0.00,,2019-01-20 09:44:48,
2019-01-20 04:49:48,37.6,36.0,29.56,NNE,14,3.6,8.3,94,0.14,,,0.96,0.00,,2019-01-20 09:49:48,
2019-01-20 04:54:48,37.6,36.0,29.55,East,81,3.6,7.8,94,0.13,,,0.97,0.00,,2019-01-20 09:54:48,
2019-01-20 04:59:48,37.8,36.1,29.55,East,94,4.9,10.3,94,0.13,,,0.98,0.00,,2019-01-20 09:59:48,
2019-01-20 05:04:48,37.8,36.1,29.55,NNW,338,3.1,6.9,94,0.12,,,1.00,0.00,,2019-01-20 10:04:48,
2019-01-20 05:09:47,37.8,36.1,29.54,NE,39,4.0,6.5,94,0.12,,,1.00,0.00,,2019-01-20 10:09:47,
2019-01-20 05:14:47,37.8,36.1,29.53,ENE,66,6.5,11.6,94,0.12,,,1.02,0.00,,2019-01-20 10:14:47,
2019-01-20 05:19:47,37.6,36.0,29.52,SE,125,4.7,7.6,94,0.12,,,1.03,0.00,,2019-01-20 10:19:47,
2019-01-20 05:24:49,37.6,36.0,29.51,East,93,5.1,10.5,94,0.12,,,1.04,0.00,,2019-01-20 10:24:49,
2019-01-20 05:29:49,37.6,36.0,29.51,East,89,6.0,9.4,94,0.11,,,1.05,0.00,,2019-01-20 10:29:49,
2019-01-20 05:34:49,37.2,35.6,29.52,South,188,2.9,4.7,94,0.11,,,1.05,0.00,,2019-01-20 10:34:49,
2019-01-20 05:39:48,37.4,35.8,29.51,ENE,69,4.0,8.5,94,0.12,,,1.06,0.00,,2019-01-20 10:39:48,
2019-01-20 05:44:48,37.4,35.8,29.50,ESE,104,4.7,8.5,94,0.12,,,1.07,0.00,,2019-01-20 10:44:48,
2019-01-20 05:49:48,37.6,36.0,29.50,East,79,5.6,9.8,94,0.12,,,1.08,0.00,,2019-01-20 10:49:48,
2019-01-20 05:54:48,37.4,35.8,29.50,East,90,4.9,7.6,94,0.11,,,1.08,0.00,,2019-01-20 10:54:48,
2019-01-20 05:59:48,37.4,35.8,29.49,ENE,63,5.1,9.2,94,0.10,,,1.09,0.00,,2019-01-20 10:59:48,
2019-01-20 06:04:48,37.6,36.0,29.49,ESE,117,6.5,11.2,94,0.10,,,1.10,0.00,,2019-01-20 11:04:48,
2019-01-20 06:09:48,37.6,36.0,29.49,ESE,112,2.9,3.8,94,0.09,,,1.10,0.00,,2019-01-20 11:09:48,
2019-01-20 06:14:47,37.6,36.0,29.49,East,82,4.5,8.7,94,0.08,,,1.10,0.00,,2019-01-20 11:14:47,
2019-01-20 06:19:47,37.8,36.1,29.48,ENE,70,3.1,6.7,94,0.07,,,1.10,0.00,,2019-01-20 11:19:47,
2019-01-20 06:24:47,37.8,36.1,29.48,ENE,77,3.8,6.7,94,0.07,,,1.11,0.00,,2019-01-20 11:24:47,
2019-01-20 06:29:47,37.9,36.3,29.48,SW,218,3.6,6.9,94,0.06,,,1.11,0.00,,2019-01-20 11:29:47,
2019-01-20 06:34:47,37.9,36.3,29.47,SE,146,3.6,7.4,94,0.07,,,1.12,0.00,,2019-01-20 11:34:47,
2019-01-20 06:39:47,38.1,36.5,29.47,East,86,2.9,5.6,94,0.07,,,1.14,0.00,,2019-01-20 11:39:47,
2019-01-20 06:44:47,38.3,36.7,29.45,ENE,68,3.1,5.4,94,0.07,,,1.15,0.00,,2019-01-20 11:44:47,
2019-01-20 06:49:47,38.3,36.7,29.45,SE,133,4.0,7.2,94,0.08,,,1.16,0.00,,2019-01-20 11:49:47,
2019-01-20 06:54:50,38.5,36.9,29.44,East,90,3.1,6.7,94,0.08,,,1.17,0.00,,2019-01-20 11:54:50,
2019-01-20 06:59:46,38.5,36.9,29.43,NNW,338,1.3,4.7,94,0.08,,,1.18,0.00,,2019-01-20 11:59:46,
2019-01-20 07:04:50,38.7,37.0,29.43,NE,53,3.6,9.4,94,0.09,,,1.19,0.00,,2019-01-20 12:04:50,
2019-01-20 07:09:46,38.7,37.0,29.42,NNE,15,5.6,14.1,94,0.10,,,1.20,0.00,,2019-01-20 12:09:46,
2019-01-20 07:14:49,38.7,37.0,29.40,NE,43,8.9,16.6,94,0.11,,,1.21,0.00,,2019-01-20 12:14:49,
2019-01-20 07:19:49,38.7,37.0,29.40,ENE,66,2.7,5.8,94,0.12,,,1.22,0.00,,2019-01-20 12:19:49,
2019-01-20 07:24:49,38.7,37.0,29.39,WNW,287,2.2,3.4,94,0.12,,,1.22,1.00,,2019-01-20 12:24:49,
2019-01-20 07:29:49,38.7,37.0,29.38,NNE,17,4.0,7.8,94,0.11,,,1.23,1.00,,2019-01-20 12:29:49,
2019-01-20 07:34:49,38.8,37.2,29.37,NNE,32,4.5,8.7,94,0.10,,,1.23,2.00,,2019-01-20 12:34:49,
2019-01-20 07:39:49,39.0,37.4,29.38,North,354,2.0,6.3,94,0.09,,,1.23,3.00,,2019-01-20 12:39:49,
2019-01-20 07:44:49,39.2,37.6,29.38,North,9,2.5,5.1,94,0.08,,,1.23,4.00,,2019-01-20 12:44:49,
2019-01-20 07:49:48,39.2,37.6,29.38,WNW,285,2.0,3.1,94,0.07,,,1.23,4.00,,2019-01-20 12:49:48,
2019-01-20 07:54:48,39.2,37.6,29.38,East,83,2.2,4.7,94,0.06,,,1.23,4.00,,2019-01-20 12:54:48,
2019-01-20 07:59:48,39.2,37.6,29.38,North,8,2.0,3.4,94,0.05,,,1.23,3.00,,2019-01-20 12:59:48,
2019-01-20 08:04:48,39.0,37.4,29.39,WSW,252,3.1,4.0,94,0.05,,,1.24,2.00,,2019-01-20 13:04:48,
2019-01-20 08:09:48,38.8,37.2,29.40,WNW,301,2.9,4.7,94,0.05,,,1.25,3.00,,2019-01-20 13:09:48,
2019-01-20 08:14:49,38.8,37.2,29.40,North,354,3.8,7.2,94,0.06,,,1.27,4.00,,2019-01-20 13:14:49,
2019-01-20 08:19:49,39.0,37.4,29.40,NE,37,2.7,7.4,94,0.07,,,1.29,4.00,,2019-01-20 13:19:49,
2019-01-20 08:24:49,39.0,37.4,29.38,NNW,343,2.2,4.3,94,0.08,,,1.31,6.00,,2019-01-20 13:24:49,
2019-01-20 08:29:48,39.0,37.4,29.38,NNE,13,4.3,7.6,94,0.10,,,1.32,5.00,,2019-01-20 13:29:48,
2019-01-20 08:34:48,38.8,37.2,29.38,North,3,2.2,6.0,94,0.12,,,1.35,10.00,,2019-01-20 13:34:48,
2019-01-20 08:39:48,38.8,37.2,29.37,NNW,347,4.3,6.9,94,0.14,,,1.37,10.00,,2019-01-20 13:39:48,
2019-01-20 08:44:48,38.8,37.2,29.38,North,8,4.7,11.0,94,0.16,,,1.39,8.00,,2019-01-20 13:44:48,
2019-01-20 08:49:48,39.0,37.4,29.33,NNW,345,2.5,6.0,94,0.18,,,1.40,20.00,,2019-01-20 13:49:48,
2019-01-20 08:54:48,39.2,37.6,29.33,NW,321,2.7,5.8,94,0.18,,,1.41,20.00,,2019-01-20 13:54:48,
2019-01-20 08:59:48,39.2,37.6,29.33,NW,309,2.2,3.4,94,0.18,,,1.41,13.00,,2019-01-20 13:59:48,
2019-01-20 09:04:48,39.6,37.9,29.34,WNW,303,2.0,2.7,94,0.18,,,1.42,14.00,,2019-01-20 14:04:48,
2019-01-20 09:09:47,39.7,38.1,29.33,NNE,12,3.8,5.6,94,0.18,,,1.43,15.00,,2019-01-20 14:09:47,
2019-01-20 09:14:47,40.1,38.5,29.31,NNW,342,3.6,5.4,94,0.18,,,1.45,20.00,,2019-01-20 14:14:47,
2019-01-20 09:19:47,40.6,39.0,29.29,NW,314,1.3,4.0,94,0.17,,,1.46,20.00,,2019-01-20 14:19:47,
2019-01-20 09:24:48,41.0,39.4,29.29,North,357,4.5,8.5,94,0.16,,,1.46,30.00,,2019-01-20 14:24:48,
2019-01-20 09:29:48,41.4,39.7,29.31,NW,325,3.8,6.0,94,0.14,,,1.46,19.00,,2019-01-20 14:29:48,
2019-01-20 09:34:48,41.5,39.9,29.30,NW,311,3.1,6.0,94,0.12,,,1.46,14.00,,2019-01-20 14:34:48,
2019-01-20 09:39:47,41.4,39.7,29.28,NNE,17,3.8,9.8,94,0.10,,,1.46,26.00,,2019-01-20 14:39:47,
2019-01-20 09:44:47,41.5,39.9,29.28,NNE,17,4.9,7.4,94,0.08,,,1.46,50.00,,2019-01-20 14:44:47,
2019-01-20 09:49:47,41.9,40.3,29.27,NNE,12,6.7,10.5,94,0.06,,,1.46,63.00,,2019-01-20 14:49:47,
2019-01-20 09:54:47,42.1,40.5,29.27,North,0,4.9,7.4,94,0.06,,,1.46,63.00,,2019-01-20 14:54:47,
2019-01-20 09:59:47,42.3,40.6,29.27,NNE,33,5.6,8.3,94,0.05,,,1.46,44.00,,2019-01-20 14:59:47,
2019-01-20 10:04:47,42.4,40.8,29.27,North,9,6.5,8.9,94,0.04,,,1.46,35.00,,2019-01-20 15:04:47,
2019-01-20 10:09:47,42.6,41.0,29.26,North,5,5.1,7.8,94,0.03,,,1.46,28.00,,2019-01-20 15:09:47,
2019-01-20 10:14:47,43.0,41.4,29.25,NNE,14,4.9,7.6,94,0.02,,,1.46,29.00,,2019-01-20 15:14:47,
2019-01-20 10:19:46,43.2,41.5,29.25,NNE,14,5.6,6.9,94,0.01,,,1.46,17.00,,2019-01-20 15:19:46,
2019-01-20 10:24:46,43.3,41.7,29.25,NNE,18,4.7,6.5,94,0.00,,,1.46,22.00,,2019-01-20 15:24:46,
2019-01-20 10:29:46,43.3,41.7,29.27,NNW,339,4.3,5.6,94,0.00,,,1.46,19.00,,2019-01-20 15:29:46,
2019-01-20 10:34:46,43.5,41.9,29.26,North,3,5.1,7.4,94,0.00,,,1.46,22.00,,2019-01-20 15:34:46,
2019-01-20 10:39:46,43.5,41.9,29.25,North,358,4.3,6.7,94,0.00,,,1.46,18.00,,2019-01-20 15:39:46,
2019-01-20 10:44:45,43.5,41.9,29.23,NE,40,5.8,8.7,94,0.00,,,1.46,21.00,,2019-01-20 15:44:45,
2019-01-20 10:49:45,43.7,42.1,29.24,NNE,13,4.5,6.9,94,0.00,,,1.46,27.00,,2019-01-20 15:49:45,
2019-01-20 10:54:45,43.7,42.1,29.23,North,5,4.9,7.4,94,0.00,,,1.46,36.00,,2019-01-20 15:54:45,
2019-01-20 10:59:45,43.7,42.1,29.29,North,357,6.7,17.2,94,0.00,,,1.47,12.00,,2019-01-20 15:59:45,
2019-01-20 11:04:45,42.4,40.8,29.31,NNE,12,4.9,8.9,94,0.00,,,1.47,8.00,,2019-01-20 16:04:45,
2019-01-20 11:09:45,41.7,40.1,29.31,North,6,4.0,8.7,94,0.00,,,1.47,16.00,,2019-01-20 16:09:45,
2019-01-20 11:14:45,41.2,39.6,29.31,North,1,3.6,6.9,94,0.00,,,1.47,15.00,,2019-01-20 16:14:45,
2019-01-20 11:19:44,40.8,39.2,29.30,NNW,343,4.9,8.5,94,0.01,,,1.47,33.00,,2019-01-20 16:19:44,
2019-01-20 11:24:44,40.5,38.8,29.28,NNE,18,4.9,7.6,94,0.01,,,1.47,62.00,,2019-01-20 16:24:44,
2019-01-20 11:29:44,40.3,38.7,29.29,North,1,5.8,8.7,94,0.01,,,1.47,54.00,,2019-01-20 16:29:44,
2019-01-20 11:34:44,40.3,38.7,29.28,NNE,12,4.7,7.2,94,0.01,,,1.47,66.00,,2019-01-20 16:34:44,
2019-01-20 11:39:44,39.7,38.1,29.29,North,8,4.7,7.2,94,0.01,,,1.47,53.00,,2019-01-20 16:39:44,
2019-01-20 11:44:44,39.6,37.9,29.29,North,4,5.8,8.5,94,0.01,,,1.47,103.00,,2019-01-20 16:44:44,
2019-01-20 11:49:44,39.6,37.9,29.29,NNE,12,4.7,6.7,94,0.01,,,1.47,87.00,,2019-01-20 16:49:44,
2019-01-20 11:54:44,39.4,37.8,29.30,North,358,5.1,7.6,94,0.01,,,1.47,140.00,,2019-01-20 16:54:44,
2019-01-20 11:59:44,39.0,37.4,29.30,North,2,4.9,8.3,94,0.01,,,1.47,82.00,,2019-01-20 16:59:44,
2019-01-20 12:04:43,38.5,36.9,29.30,North,8,4.9,8.5,94,0.01,,,1.47,96.00,,2019-01-20 17:04:43,
2019-01-20 12:09:43,38.3,36.7,29.31,North,6,4.7,7.4,94,0.00,,,1.47,112.00,,2019-01-20 17:09:43,
2019-01-20 12:14:43,37.9,36.3,29.31,NNE,17,5.4,8.9,94,0.00,,,1.47,113.00,,2019-01-20 17:14:43,
2019-01-20 12:19:43,37.9,36.3,29.30,NNE,14,6.3,10.5,94,0.00,,,1.47,139.00,,2019-01-20 17:19:43,
2019-01-20 12:24:43,37.9,36.3,29.30,NNE,12,4.5,6.5,94,0.00,,,1.47,142.00,,2019-01-20 17:24:43,
2019-01-20 12:29:42,37.8,36.1,29.29,North,7,4.5,11.4,94,0.00,,,1.47,194.00,,2019-01-20 17:29:42,
2019-01-20 12:34:42,37.8,36.1,29.29,NNW,337,6.5,14.5,94,0.00,,,1.47,260.00,,2019-01-20 17:34:42,
2019-01-20 12:39:42,37.9,36.3,29.30,NNW,333,4.3,8.5,94,0.00,,,1.47,240.00,,2019-01-20 17:39:42,
2019-01-20 12:44:42,37.9,36.3,29.30,NNW,335,4.3,7.4,94,0.00,,,1.47,248.00,,2019-01-20 17:44:42,
2019-01-20 12:49:42,38.1,36.5,29.31,NNW,340,2.5,4.9,94,0.00,,,1.47,248.00,,2019-01-20 17:49:42,
2019-01-20 12:54:42,38.1,36.5,29.31,NNW,338,8.7,18.3,94,0.00,,,1.47,224.00,,2019-01-20 17:54:42,
2019-01-20 12:59:41,38.5,36.9,29.31,NNE,32,2.9,9.2,94,0.00,,,1.47,195.00,,2019-01-20 17:59:41,
2019-01-20 13:04:41,38.5,36.9,29.31,West,278,3.4,5.6,94,0.00,,,1.47,153.00,,2019-01-20 18:04:41,
2019-01-20 13:09:41,38.5,36.9,29.31,North,350,6.7,13.6,94,0.00,,,1.47,128.00,,2019-01-20 18:09:41,
2019-01-20 13:14:41,38.5,36.9,29.31,NW,305,1.1,4.7,94,0.00,,,1.47,91.00,,2019-01-20 18:14:41,
2019-01-20 13:19:41,38.3,36.7,29.31,NW,317,6.5,17.4,94,0.00,,,1.47,88.00,,2019-01-20 18:19:41,
2019-01-20 13:24:41,38.5,36.9,29.32,North,350,4.3,11.6,94,0.00,,,1.47,75.00,,2019-01-20 18:24:41,
2019-01-20 13:29:41,38.5,36.9,29.32,North,4,5.4,14.5,94,0.00,,,1.47,85.00,,2019-01-20 18:29:41,
2019-01-20 13:34:41,38.7,37.0,29.33,North,359,9.2,15.7,94,0.00,,,1.47,86.00,,2019-01-20 18:34:41,
2019-01-20 13:39:40,38.7,37.0,29.33,NNW,345,6.9,17.7,94,0.00,,,1.47,88.00,,2019-01-20 18:39:40,
2019-01-20 13:44:40,38.5,36.9,29.34,NW,326,3.6,10.3,94,0.00,,,1.47,73.00,,2019-01-20 18:44:40,
2019-01-20 13:49:40,38.7,37.0,29.35,NNW,337,3.1,6.0,94,0.00,,,1.47,71.00,,2019-01-20 18:49:40,
2019-01-20 13:54:40,38.3,36.7,29.36,North,10,4.7,9.4,94,0.00,,,1.47,69.00,,2019-01-20 18:54:40,
2019-01-20 13:59:40,37.8,36.1,29.36,North,354,7.6,15.0,94,0.00,,,1.47,72.00,,2019-01-20 18:59:40,
2019-01-20 14:04:40,37.6,36.0,29.36,NNW,330,2.9,8.9,94,0.00,,,1.47,84.00,,2019-01-20 19:04:40,
2019-01-20 14:09:40,37.0,35.4,29.37,NNW,331,9.4,21.3,94,0.00,,,1.47,98.00,,2019-01-20 19:09:40,
2019-01-20 14:14:39,36.9,35.2,29.37,North,3,3.8,11.4,94,0.00,,,1.47,112.00,,2019-01-20 19:14:39,
2019-01-20 14:19:39,36.7,35.1,29.36,North,3,6.9,18.1,94,0.00,,,1.47,100.00,,2019-01-20 19:19:39,
2019-01-20 14:24:39,36.3,34.7,29.37,NNW,347,5.8,11.2,94,0.00,,,1.47,105.00,,2019-01-20 19:24:39,
2019-01-20 14:29:39,35.8,34.2,29.38,NNW,336,6.0,13.9,94,0.00,,,1.47,88.00,,2019-01-20 19:29:39,
2019-01-20 14:34:39,35.6,34.0,29.38,NW,310,1.6,3.6,94,0.00,,,1.47,83.00,,2019-01-20 19:34:39,
2019-01-20 14:39:39,35.4,33.8,29.40,NNW,335,4.0,6.9,94,0.00,,,1.47,64.00,,2019-01-20 19:39:39,
2019-01-20 14:44:39,35.1,33.4,29.41,SW,223,2.5,3.8,94,0.00,,,1.47,63.00,,2019-01-20 19:44:39,
2019-01-20 14:49:39,34.9,33.3,29.41,WSW,249,2.0,8.5,94,0.00,,,1.47,55.00,,2019-01-20 19:49:39,
2019-01-20 14:54:39,34.7,33.1,29.42,NNW,341,3.6,10.3,94,0.00,,,1.47,58.00,,2019-01-20 19:54:39,
2019-01-20 14:59:39,34.3,32.7,29.42,NNW,344,4.0,8.9,94,0.00,,,1.47,59.00,,2019-01-20 19:59:39,
2019-01-20 15:04:38,34.2,32.5,29.43,SW,236,1.8,4.0,94,0.00,,,1.47,60.00,,2019-01-20 20:04:38,
2019-01-20 15:09:38,34.0,32.4,29.43,North,11,3.6,7.6,94,0.00,,,1.47,63.00,,2019-01-20 20:09:38,
2019-01-20 15:14:38,33.6,32.0,29.44,WSW,255,4.0,8.7,94,0.00,,,1.47,60.00,,2019-01-20 20:14:38,
2019-01-20 15:19:38,33.4,31.8,29.44,NW,319,4.9,9.8,94,0.00,,,1.47,68.00,,2019-01-20 20:19:38,
2019-01-20 15:24:38,33.3,31.6,29.44,NW,318,2.9,9.8,94,0.00,,,1.47,65.00,,2019-01-20 20:24:38,
2019-01-20 15:29:38,33.1,31.5,29.44,NNW,344,0.9,3.4,94,0.00,,,1.47,66.00,,2019-01-20 20:29:38,
2019-01-20 15:34:38,32.9,31.3,29.45,NNW,327,2.7,7.8,94,0.00,,,1.47,62.00,,2019-01-20 20:34:38,
2019-01-20 15:39:38,32.9,31.3,29.45,WNW,282,1.3,2.5,94,0.00,,,1.47,79.00,,2019-01-20 20:39:38,
2019-01-20 15:44:38,32.5,30.9,29.45,ENE,65,2.7,6.0,94,0.00,,,1.47,74.00,,2019-01-20 20:44:38,
2019-01-20 15:49:37,32.7,31.1,29.47,North,2,2.2,5.6,94,0.00,,,1.47,46.00,,2019-01-20 20:49:37,